• Join FlightAware (Why Join?)
  • Login
  • US Flag 
 
09:28PM EST


 

Airport Tracker/Info


-or-


 

Live Flight TrackerFlight Track Log ✈ UAL582 ✈ 12-Jul-2013 ✈ KORD - KTPA

Flight Track Log - Related Links

Times and Time Zones

All times are in EDT time to prevent confusion due to time zone crossing. See the UAL582 flight status page for this flight to view local times or setup timezone preferences in your user account.

Time Position Orientation Groundspeed Altitude Reporting Facility
EDT Latitude Longitude Course Direction KTS MPH feet Rate Location/Type
08:43PM 41.8175 -87.9614 177° South 239 275 6,400  Level Chicago Center
08:44PM 41.7436 -87.9289 162° South 271 312 9,100 2,460 Climbing Chicago Center
08:45PM 41.6589 -87.9172 174° South 299 344 11,500 2,340 Climbing Chicago Center
08:46PM 41.2999 -87.5934 161° South  Level Estimated
08:46PM 41.5711 -87.9033 173° South 312 359 14,000  Level Chicago Center
08:47PM 41.1862 -87.5418 161° South  Level Estimated
08:47PM 41.4783 -87.8875 173° South 328 377 15,400  Level Chicago Center
08:48PM 41.3458 -87.8550 170° South 398 458 16,200 900 Climbing Chicago Center
08:49PM 41.2239 -87.8256 170° South 439 505 17,300 960 Climbing Chicago Center
08:50PM 41.0978 -87.7953 170° South 457 526 18,300 1,200 Climbing Chicago Center
08:51PM 40.9683 -87.7631 169° South 471 542 19,800 1,260 Climbing Chicago Center
08:52PM 40.8361 -87.7311 170° South 481 554 21,000 960 Climbing Chicago Center
08:53PM 40.7006 -87.6981 170° South 492 566 21,800 960 Climbing Chicago Center
08:54PM 40.5325 -87.6586 170° South 510 587 23,000 960 Climbing Chicago Center
08:55PM 40.3900 -87.6250 170° South 521 600 23,800 720 Climbing Chicago Center
08:56PM 40.2431 -87.5906 170° South 535 616 24,600 1,080 Climbing Chicago Center
08:57PM 40.1081 -87.5603 170° South 539 620 25,900 1,380 Climbing Indianapolis Center
08:58PM 39.9633 -87.5275 170° South 532 612 27,200 1,200 Climbing Indianapolis Center
08:59PM 39.8183 -87.4944 170° South 533 613 28,400 960 Climbing Indianapolis Center
09:00PM 39.6739 -87.4603 170° South 533 613 29,300 900 Climbing Indianapolis Center
09:01PM 39.5281 -87.4269 170° South 537 618 30,300 900 Climbing Indianapolis Center
09:02PM 39.3797 -87.3928 170° South 542 624 31,200 960 Climbing Indianapolis Center
09:03PM 39.2017 -87.3531 170° South 546 628 32,400 960 Climbing Indianapolis Center
09:04PM 39.0581 -87.3200 170° South 547 629 33,300 840 Climbing Indianapolis Center
09:05PM 38.9075 -87.2861 170° South 547 629 34,200 840 Climbing Indianapolis Center
09:06PM 38.7564 -87.2519 170° South 547 629 35,000 360 Climbing Indianapolis Center
09:07PM 38.6044 -87.2169 170° South 554 638 35,000  Level Indianapolis Center
09:08PM 38.4522 -87.1842 170° South 556 640 35,000  Level Indianapolis Center
09:09PM 38.2658 -87.1414 170° South 564 649 35,000  Level Indianapolis Center
09:10PM 38.1228 -87.1106 170° South 562 647 35,000  Level Indianapolis Center
09:11PM 37.9706 -87.0769 170° South 557 641 35,000  Level Indianapolis Center
09:12PM 37.8181 -87.0431 170° South 556 640 35,000  Level Indianapolis Center
09:13PM 37.6661 -87.0094 170° South 554 638 35,000  Level Indianapolis Center
09:14PM 37.4903 -86.9756 171° South 545 627 35,000  Level Indianapolis Center
09:15PM 37.3392 -86.9422 170° South 545 627 35,000  Level Indianapolis Center
09:17PM 37.1878 -86.9083 170° South 546 628 35,000  Level Indianapolis Center
09:18PM 37.0353 -86.8769 171° South 548 631 35,000  Level Indianapolis Center
09:19PM 36.8853 -86.8425 170° South 544 626 35,000  Level Indianapolis Center
09:20PM 36.7142 -86.8058 170° South 546 628 35,000  Level Memphis Center
09:21PM 36.5550 -86.7714 170° South 546 628 35,000  Level Memphis Center
09:22PM 36.4100 -86.7314 167° South 535 616 35,000  Level Memphis Center
09:23PM 36.2569 -86.7022 171° South 550 633 35,000  Level Memphis Center
09:24PM 36.1142 -86.6700 170° South 539 620 35,000  Level Memphis Center
09:26PM 35.8697 -86.5539 159° South 509 586 35,000  Level Indianapolis Center
09:27PM 35.7397 -86.4897 158° South 505 581 35,000  Level Atlanta Center
09:28PM 35.6242 -86.4325 158° South 505 581 35,000  Level Atlanta Center
09:29PM 35.4981 -86.3728 159° South 498 573 35,000  Level Atlanta Center
09:30PM 35.3719 -86.3108 158° South 493 567 35,000  Level Atlanta Center
09:31PM 35.2458 -86.2486 158° South 488 562 35,000  Level Atlanta Center
09:32PM 35.1300 -86.1872 157° South 481 554 35,000  Level Atlanta Center
09:33PM 35.0078 -86.1333 160° South 470 541 35,000  Level Atlanta Center
09:34PM 34.8858 -86.0694 157° South 465 535 35,000  Level Atlanta Center
09:35PM 34.7678 -86.0136 159° South 465 535 35,000  Level Atlanta Center
09:36PM 34.6497 -85.9553 158° South 470 541 35,000  Level Atlanta Center
09:37PM 34.5294 -85.8969 158° South 465 535 35,000  Level Atlanta Center
09:38PM 34.4094 -85.8392 158° South 465 535 35,000  Level Atlanta Center
09:39PM 34.2828 -85.7836 160° South 465 535 35,000  Level Atlanta Center
09:40PM 34.1606 -85.7283 159° South 465 535 35,000  Level Atlanta Center
09:41PM 34.0381 -85.6708 159° South 470 541 35,000  Level Atlanta Center
09:42PM 33.9200 -85.6133 158° South 464 534 35,000  Level Atlanta Center
09:43PM 33.7994 -85.5611 160° South 464 534 35,000  Level Atlanta Center
09:44PM 33.6853 -85.5042 157° South 458 527 35,000  Level Atlanta Center
09:45PM 33.5733 -85.4550 160° South 444 511 35,000  Level Atlanta Center
09:46PM 33.4592 -85.4008 158° South 444 511 35,000  Level Atlanta Center
09:47PM 33.3469 -85.3494 159° South 444 511 35,000  Level Atlanta Center
09:48PM 33.2347 -85.2956 158° South 439 505 35,000  Level Atlanta Center
09:49PM 33.1206 -85.2442 159° South 439 505 35,100  Climbing Atlanta Center
09:50PM 33.0269 -85.1958 157° South 428 493 35,000 -60 Descending Atlanta Center
09:51PM 32.9147 -85.1572 164° South 428 493 35,000  Level Atlanta Center
09:52PM 32.7981 -85.1311 169° South 423 487 35,000  Level Atlanta Center
09:53PM 32.6836 -85.0803 160° South 423 487 35,000  Level Atlanta Center
09:54PM 32.5692 -85.0394 163° South 429 494 35,000  Level Atlanta Center
09:55PM 32.4547 -84.9989 163° South 429 494 35,000  Level Atlanta Center
09:56PM 32.3444 -84.9436 157° South 434 499 35,000  Level Atlanta Center
09:57PM 32.1389 -84.8506 159° South 437 503 35,000  Level Jacksonville Center
09:58PM 32.0436 -84.8067 159° South 431 496 35,000  Level Jacksonville Center
09:59PM 31.9317 -84.7531 158° South 431 496 35,000  Level Jacksonville Center
10:00PM 31.8194 -84.7019 159° South 431 496 35,000  Level Jacksonville Center
10:01PM 31.7056 -84.6483 158° South 431 496 35,000  Level Jacksonville Center
10:02PM 31.5892 -84.5950 159° South 431 496 35,100  Climbing Jacksonville Center
10:03PM 31.4794 -84.5417 157° South 431 496 35,000 -60 Descending Jacksonville Center
10:04PM 31.3672 -84.4911 159° South 431 496 35,000  Level Jacksonville Center
10:05PM 31.2531 -84.4381 158° South 431 496 35,000  Level Jacksonville Center
10:06PM 31.1431 -84.3853 158° South 431 496 35,000  Level Jacksonville Center
10:07PM 31.0289 -84.3328 158° South 431 496 35,000  Level Jacksonville Center
10:08PM 30.9144 -84.2800 158° South 431 496 35,000  Level Jacksonville Center
10:09PM 30.7983 -84.2253 158° South 436 502 35,000  Level Jacksonville Center
10:10PM 30.6819 -84.1703 158° South 442 509 35,000  Level Jacksonville Center
10:11PM 30.5633 -84.1181 159° South 452 520 35,000  Level Jacksonville Center
10:12PM 30.4386 -84.0586 158° South 447 514 35,000 -60 Level Jacksonville Center
10:13PM 30.3222 -84.0067 159° South 447 514 34,900 -60 Descending Jacksonville Center
10:14PM 30.2058 -83.9550 159° South 447 514 34,900  Level Jacksonville Center
10:15PM 30.0914 -83.9033 159° South 447 514 34,900  Level Jacksonville Center
10:16PM 29.9747 -83.8494 158° South 447 514 34,900  Level Jacksonville Center
10:17PM 29.8583 -83.7978 159° South 447 514 35,000  Climbing Jacksonville Center
10:18PM 29.7439 -83.7442 158° South 447 514 34,900 -1,200 Descending Jacksonville Center
10:19PM 29.6253 -83.6931 159° South 447 514 32,600 -2,160 Descending Jacksonville Center
10:20PM 29.5064 -83.6394 159° South 452 520 30,600 -2,040 Descending Jacksonville Center
10:21PM 29.3878 -83.5861 159° South 452 520 28,600 -2,040 Descending Jacksonville Center
10:22PM 29.2711 -83.5331 158° South 452 520 26,600 -1,980 Descending Jacksonville Center
10:23PM 29.1544 -83.4703 155° Southeast 452 520 24,700 -1,980 Descending Jacksonville Center
10:24PM 29.0442 -83.3983 150° Southeast 452 520 22,700 -1,980 Descending Jacksonville Center
10:25PM 28.9400 -83.3339 152° Southeast 446 513 20,800 -1,980 Descending Jacksonville Center
10:26PM 28.8361 -83.2647 150° Southeast 435 501 18,800 -1,800 Descending Jacksonville Center
10:27PM 28.7589 -83.2169 152° Southeast 423 487 17,300 -1,860 Descending Jacksonville Center
10:29PM 28.6167 -83.1167 148° Southeast 380 437 14,400 -1,620 Descending Tampa TRACON
10:30PM 28.5167 -83.0667 156° South 376 433 13,400 -900 Descending Tampa TRACON
10:31PM 28.4333 -83.0000 145° Southeast 340 391 12,700 -1,020 Descending Tampa TRACON
10:32PM 28.3833 -82.9167 124° Southeast 309 356 11,400 -1,500 Descending Tampa TRACON
10:33PM 28.3500 -82.8667 127° Southeast 302 348 10,100 -1,560 Descending Tampa TRACON
10:34PM 28.3000 -82.7833 124° Southeast 296 341 8,600 -1,500 Descending Tampa TRACON
10:34PM 28.2667 -82.7167 120° Southeast 288 331 7,300 -2,160 Descending Tampa TRACON
10:35PM 28.2167 -82.6500 130° Southeast 281 323 4,600 -2,100 Descending Tampa TRACON
10:36PM 28.1667 -82.5667 124° Southeast 268 308 3,200 -900 Descending Tampa TRACON
10:37PM 28.1333 -82.5333 139° Southeast 207 238 2,900 -300 Descending Tampa TRACON